Time;durP1;ratioP1;P1;durP2;ratioP2;P2;SDS_P1;SDS_P2;PMS_P1;PMS_P2;Temp;Humidity;BMP_temperature;BMP_pressure;BME280_temperature;BME280_humidity;BME280_pressure;Samples;Min_cycle;Max_cycle;Signal;HPM_P1;HPM_P2
2023/03/01 00:00:33;;;;;;;21.07;11.47;;;-0.90;99.90;;;;;;5245853;28;20942;-52
2023/03/01 00:03:04;;;;;;;27.30;13.60;;;-1.00;99.90;;;;;;5248275;28;20209;-53
2023/03/01 00:05:34;;;;;;;34.77;15.10;;;-1.10;99.90;;;;;;5239324;28;20198;-51
2023/03/01 00:08:05;;;;;;;42.83;19.47;;;-1.10;99.90;;;;;;5223789;28;20184;-51
2023/03/01 00:10:35;;;;;;;33.03;18.40;;;-1.00;99.90;;;;;;5245818;28;20252;-52
2023/03/01 00:13:06;;;;;;;39.97;19.93;;;-1.10;99.90;;;;;;5233057;28;20642;-52
2023/03/01 00:15:43;;;;;;;41.83;19.20;;;-1.10;99.90;;;;;;5248954;28;20206;-51
2023/03/01 00:18:14;;;;;;;36.70;17.50;;;-1.10;99.90;;;;;;5228145;28;20231;-55
2023/03/01 00:20:55;;;;;;;34.57;18.27;;;-1.20;99.90;;;;;;5251626;28;20447;-54
2023/03/01 00:23:26;;;;;;;38.70;17.80;;;-1.20;99.90;;;;;;5248696;28;20623;-54
2023/03/01 00:25:57;;;;;;;33.37;16.53;;;-1.20;99.90;;;;;;5234201;28;20437;-53
2023/03/01 00:28:27;;;;;;;28.27;15.03;;;-1.20;99.90;;;;;;5243291;28;20952;-55
2023/03/01 00:31:07;;;;;;;26.97;15.30;;;-1.20;99.90;;;;;;5228221;28;20600;-53
2023/03/01 00:33:38;;;;;;;26.27;15.40;;;-1.20;99.90;;;;;;5230835;28;20190;-52
2023/03/01 00:36:11;;;;;;;31.33;16.13;;;-1.30;99.90;;;;;;5234433;28;20420;-54
2023/03/01 00:38:44;;;;;;;38.77;18.43;;;-1.30;99.90;;;;;;5232646;28;20183;-52
2023/03/01 00:41:17;;;;;;;32.87;17.67;;;-1.30;99.90;;;;;;5232572;28;20995;-54
2023/03/01 00:43:48;;;;;;;41.10;17.17;;;-1.40;99.90;;;;;;5244149;28;20463;-53
2023/03/01 00:46:23;;;;;;;31.97;16.90;;;-1.40;99.90;;;;;;5247523;28;20436;-52
2023/03/01 00:48:54;;;;;;;36.17;16.60;;;-1.40;99.90;;;;;;5245958;28;20981;-52
2023/03/01 00:51:27;;;;;;;27.30;15.73;;;-1.40;99.90;;;;;;5242633;28;20815;-52
2023/03/01 00:54:00;;;;;;;34.00;16.33;;;-1.50;99.90;;;;;;5238022;28;20473;-52
2023/03/01 00:56:31;;;;;;;28.73;15.00;;;-1.50;99.90;;;;;;5250919;28;20428;-53
2023/03/01 00:59:01;;;;;;;30.93;14.40;;;-1.50;99.90;;;;;;5243725;28;20486;-53
2023/03/01 01:01:32;;;;;;;22.13;12.30;;;-1.50;99.90;;;;;;5248641;28;20214;-53
2023/03/01 01:04:09;;;;;;;29.53;14.07;;;-1.50;99.90;;;;;;5226781;28;20209;-52
2023/03/01 01:06:45;;;;;;;27.43;12.60;;;-1.50;99.90;;;;;;5243375;28;20256;-51
2023/03/01 01:09:17;;;;;;;27.20;13.07;;;-1.50;99.90;;;;;;5251167;28;20432;-52
2023/03/01 01:11:50;;;;;;;28.77;13.20;;;-1.50;99.90;;;;;;5245097;28;20869;-53
2023/03/01 01:14:21;;;;;;;28.50;12.77;;;-1.50;99.90;;;;;;5232864;28;20440;-54
2023/03/01 01:16:51;;;;;;;24.17;12.40;;;-1.50;99.90;;;;;;5249850;28;20550;-52
2023/03/01 01:19:22;;;;;;;31.93;14.50;;;-1.60;99.90;;;;;;5241691;28;20551;-54
2023/03/01 01:21:53;;;;;;;32.60;13.73;;;-1.60;99.90;;;;;;5227877;28;20658;-52
2023/03/01 01:24:24;;;;;;;28.47;14.60;;;-1.50;99.90;;;;;;5232877;28;20527;-53
2023/03/01 01:26:55;;;;;;;24.53;12.50;;;-1.40;99.90;;;;;;5245064;28;20198;-53
2023/03/01 01:29:25;;;;;;;24.47;12.40;;;-1.40;99.90;;;;;;5242798;28;20190;-52
2023/03/01 01:31:56;;;;;;;23.30;11.60;;;-1.30;99.90;;;;;;5250358;28;20589;-53
2023/03/01 01:34:26;;;;;;;21.73;11.90;;;-1.20;99.90;;;;;;5249972;28;20213;-51
2023/03/01 01:36:57;;;;;;;28.60;13.60;;;-1.20;99.90;;;;;;5232159;28;20184;-51
2023/03/01 01:39:28;;;;;;;23.33;12.27;;;-1.20;99.90;;;;;;5238081;28;20185;-52
2023/03/01 01:41:59;;;;;;;24.77;13.53;;;-1.20;99.90;;;;;;5250525;22;20226;-49
2023/03/01 01:44:30;;;;;;;25.03;14.40;;;-1.20;99.90;;;;;;5226564;28;20216;-48
2023/03/01 01:47:14;;;;;;;28.90;15.07;;;-1.30;99.90;;;;;;5228956;28;20460;-48
2023/03/01 01:49:51;;;;;;;30.50;14.93;;;-1.30;99.90;;;;;;5229552;28;20171;-48
2023/03/01 01:52:42;;;;;;;27.10;14.43;;;-1.30;99.90;;;;;;5212278;28;20461;-49
2023/03/01 01:55:22;;;;;;;27.23;14.73;;;-1.20;99.90;;;;;;5204196;28;20498;-48
2023/03/01 01:58:01;;;;;;;25.23;14.67;;;-1.30;99.90;;;;;;5206403;28;20426;-50
2023/03/01 02:00:32;;;;;;;26.70;14.40;;;-1.30;99.90;;;;;;5196439;28;20775;-49
2023/03/01 02:03:13;;;;;;;27.13;14.90;;;-1.30;99.90;;;;;;5217435;28;20547;-49
2023/03/01 02:05:50;;;;;;;28.60;14.10;;;-1.30;99.90;;;;;;5207390;28;20179;-49
2023/03/01 02:08:23;;;;;;;29.30;14.77;;;-1.30;99.90;;;;;;5198925;28;20933;-48
2023/03/01 02:10:55;;;;;;;22.67;13.57;;;-1.40;99.90;;;;;;5214318;28;20458;-48
2023/03/01 02:13:27;;;;;;;31.40;14.90;;;-1.40;99.90;;;;;;5207054;28;20450;-50
2023/03/01 02:15:58;;;;;;;25.10;13.33;;;-1.40;99.90;;;;;;5204388;28;20519;-48
2023/03/01 02:18:29;;;;;;;24.43;13.67;;;-1.50;99.90;;;;;;5215426;28;20425;-50
2023/03/01 02:21:24;;;;;;;28.40;14.00;;;-1.50;99.90;;;;;;5205618;28;20940;-49
2023/03/01 02:23:55;;;;;;;25.90;14.00;;;-1.50;99.90;;;;;;5207278;28;20195;-48
2023/03/01 02:26:56;;;;;;;28.43;13.17;;;-1.60;99.90;;;;;;5198703;28;20472;-49
2023/03/01 02:29:27;;;;;;;28.70;14.60;;;-1.60;99.90;;;;;;5195007;28;20508;-49
2023/03/01 02:32:01;;;;;;;26.20;16.37;;;-1.60;99.90;;;;;;5197778;28;20454;-48
2023/03/01 02:34:33;;;;;;;31.07;15.20;;;-1.70;99.90;;;;;;5203197;28;20441;-50
2023/03/01 02:37:12;;;;;;;34.43;14.90;;;-1.60;99.90;;;;;;5193349;28;20514;-49
2023/03/01 02:39:48;;;;;;;32.57;17.70;;;-1.70;99.90;;;;;;5204514;28;20810;-47
2023/03/01 02:42:25;;;;;;;36.57;15.60;;;-1.70;99.90;;;;;;5193631;28;20897;-49
2023/03/01 02:44:56;;;;;;;24.63;13.23;;;-1.70;99.90;;;;;;5199258;28;20964;-49
2023/03/01 02:47:27;;;;;;;31.93;15.97;;;-1.70;99.90;;;;;;5207126;28;20510;-48
2023/03/01 02:49:57;;;;;;;28.23;15.00;;;-1.60;99.90;;;;;;5208462;28;20190;-48
2023/03/01 02:52:43;;;;;;;33.97;16.57;;;-1.70;99.90;;;;;;5206980;28;20634;-49
2023/03/01 02:55:16;;;;;;;24.93;12.90;;;-1.70;99.90;;;;;;5203197;28;20267;-48
2023/03/01 02:57:50;;;;;;;31.17;13.63;;;-1.70;99.90;;;;;;5187152;28;20416;-48
2023/03/01 03:00:28;;;;;;;21.50;11.70;;;-1.80;99.90;;;;;;5197493;28;20921;-48
2023/03/01 03:02:59;;;;;;;29.33;12.57;;;-1.80;99.90;;;;;;5205343;28;20489;-48
2023/03/01 03:05:31;;;;;;;28.87;14.10;;;-1.90;99.90;;;;;;5203196;28;20969;-48
2023/03/01 03:08:03;;;;;;;23.50;14.53;;;-1.90;99.90;;;;;;5204717;28;20176;-47
2023/03/01 03:10:37;;;;;;;30.63;14.23;;;-2.00;99.90;;;;;;5191367;28;20503;-48
2023/03/01 03:13:13;;;;;;;26.33;13.70;;;-2.00;99.90;;;;;;5187422;28;20457;-49
2023/03/01 03:15:44;;;;;;;25.30;13.90;;;-2.00;99.90;;;;;;5202974;28;20429;-49
2023/03/01 03:18:17;;;;;;;24.23;12.63;;;-2.00;99.90;;;;;;5207873;28;20815;-49
2023/03/01 03:20:52;;;;;;;19.80;11.60;;;-1.90;99.90;;;;;;5208750;28;20180;-48
2023/03/01 03:23:23;;;;;;;25.60;11.50;;;-1.90;99.90;;;;;;5205380;28;20544;-48
2023/03/01 03:25:54;;;;;;;17.80;12.13;;;-1.90;99.90;;;;;;5197694;28;20607;-48
2023/03/01 03:28:24;;;;;;;22.00;11.60;;;-2.00;99.90;;;;;;5205443;28;20438;-48
2023/03/01 03:30:55;;;;;;;21.97;13.10;;;-2.00;99.90;;;;;;5187336;28;20214;-48
2023/03/01 03:33:25;;;;;;;22.33;13.10;;;-2.00;99.90;;;;;;5202720;28;20212;-48
2023/03/01 03:35:56;;;;;;;21.73;11.77;;;-2.00;99.90;;;;;;5191979;28;20184;-50
2023/03/01 03:38:27;;;;;;;16.33;10.00;;;-2.10;99.90;;;;;;5205505;28;20595;-48
2023/03/01 03:41:04;;;;;;;16.47;10.23;;;-2.10;99.90;;;;;;5205410;28;20872;-48
2023/03/01 03:43:36;;;;;;;17.03;9.50;;;-2.20;99.90;;;;;;5204667;28;20198;-48
2023/03/01 03:46:07;;;;;;;18.70;10.13;;;-2.20;99.90;;;;;;5202977;28;20977;-48
2023/03/01 03:48:42;;;;;;;17.73;9.87;;;-2.30;99.90;;;;;;5206207;28;20422;-48
2023/03/01 03:51:17;;;;;;;18.43;10.07;;;-2.40;99.90;;;;;;5202684;28;20190;-48
2023/03/01 03:53:48;;;;;;;16.70;9.73;;;-2.40;99.90;;;;;;5203565;28;20516;-49
2023/03/01 03:56:18;;;;;;;20.13;10.97;;;-2.50;99.90;;;;;;5202051;28;20857;-47
2023/03/01 03:58:49;;;;;;;26.60;10.10;;;-2.50;99.90;;;;;;5207638;28;20191;-49
2023/03/01 04:01:20;;;;;;;23.13;10.63;;;-2.40;99.90;;;;;;5206718;28;20245;-47
2023/03/01 04:03:54;;;;;;;19.90;11.00;;;-2.40;99.90;;;;;;5205243;28;20230;-49
2023/03/01 04:06:24;;;;;;;25.90;10.93;;;-2.40;99.90;;;;;;5203894;28;20417;-49
2023/03/01 04:09:00;;;;;;;26.57;11.43;;;-2.30;99.90;;;;;;5205275;28;20487;-48
2023/03/01 04:11:31;;;;;;;18.93;12.03;;;-2.40;99.90;;;;;;5210390;28;20611;-49
2023/03/01 04:14:04;;;;;;;24.27;13.20;;;-2.40;99.90;;;;;;5196348;28;20465;-50
2023/03/01 04:16:34;;;;;;;25.83;12.00;;;-2.40;99.90;;;;;;5187835;28;20648;-49
2023/03/01 04:19:06;;;;;;;25.03;11.37;;;-2.30;99.90;;;;;;5198674;28;20521;-48
2023/03/01 04:21:36;;;;;;;24.97;11.50;;;-2.40;99.90;;;;;;5202199;28;20204;-49
2023/03/01 04:24:08;;;;;;;19.80;10.47;;;-2.30;99.90;;;;;;5195410;28;20488;-49
2023/03/01 04:26:39;;;;;;;28.17;12.33;;;-2.30;99.90;;;;;;5204646;28;20187;-49
2023/03/01 04:29:10;;;;;;;20.70;10.33;;;-2.30;99.90;;;;;;5204646;28;20435;-48
2023/03/01 04:31:40;;;;;;;22.10;12.07;;;-2.30;99.90;;;;;;5201554;28;20204;-47
2023/03/01 04:34:13;;;;;;;15.30;9.10;;;-2.30;99.90;;;;;;5203309;28;20261;-48
2023/03/01 04:36:44;;;;;;;19.27;10.67;;;-2.40;99.90;;;;;;5196851;28;20309;-48
2023/03/01 04:39:14;;;;;;;17.63;10.00;;;-2.40;99.90;;;;;;5201376;28;20879;-48
2023/03/01 04:41:45;;;;;;;19.80;9.90;;;-2.40;99.90;;;;;;5197103;28;20640;-49
2023/03/01 04:44:15;;;;;;;20.70;11.10;;;-2.50;99.90;;;;;;5201644;28;20208;-49
2023/03/01 04:46:49;;;;;;;21.13;11.33;;;-2.60;99.90;;;;;;5203082;28;20177;-50
2023/03/01 04:49:20;;;;;;;23.10;11.73;;;-2.50;99.90;;;;;;5202424;28;20181;-49
2023/03/01 04:51:50;;;;;;;22.47;10.30;;;-2.60;99.90;;;;;;5211298;28;20453;-49
2023/03/01 04:54:21;;;;;;;17.33;10.90;;;-2.60;99.90;;;;;;5207358;28;20323;-49
2023/03/01 04:56:51;;;;;;;17.80;10.40;;;-2.50;99.90;;;;;;5205220;28;20592;-48
2023/03/01 04:59:22;;;;;;;20.23;11.90;;;-2.50;99.90;;;;;;5200818;28;20178;-48
2023/03/01 05:01:56;;;;;;;23.60;12.37;;;-2.50;99.90;;;;;;5207276;28;20679;-48
2023/03/01 05:04:28;;;;;;;18.17;10.80;;;-2.50;99.90;;;;;;5204209;28;20663;-49
2023/03/01 05:06:58;;;;;;;20.13;9.87;;;-2.50;99.90;;;;;;5208554;28;20426;-50
2023/03/01 05:09:29;;;;;;;19.93;10.33;;;-2.60;99.90;;;;;;5202569;28;20512;-51
2023/03/01 05:11:59;;;;;;;19.60;11.60;;;-2.60;99.90;;;;;;5199646;28;20195;-48
2023/03/01 05:14:30;;;;;;;21.27;10.07;;;-2.50;99.90;;;;;;5198294;28;20184;-48
2023/03/01 05:17:03;;;;;;;19.77;10.90;;;-2.50;99.90;;;;;;5202396;28;20227;-49
2023/03/01 05:19:34;;;;;;;15.50;10.93;;;-2.50;99.90;;;;;;5202413;28;20172;-49
2023/03/01 05:22:05;;;;;;;24.97;11.90;;;-2.50;99.90;;;;;;5220365;28;20477;-49
2023/03/01 05:24:36;;;;;;;20.30;11.83;;;-2.50;99.90;;;;;;5209880;28;20207;-47
2023/03/01 05:27:06;;;;;;;20.13;11.10;;;-2.50;99.90;;;;;;5198983;28;20180;-49
2023/03/01 05:29:39;;;;;;;17.50;10.40;;;-2.50;99.90;;;;;;5207596;28;20179;-49
2023/03/01 05:32:14;;;;;;;22.40;10.90;;;-2.50;99.90;;;;;;5207447;28;20245;-49
2023/03/01 05:34:46;;;;;;;20.33;11.23;;;-2.60;99.90;;;;;;5205145;28;20520;-49
2023/03/01 05:37:16;;;;;;;18.53;11.00;;;-2.60;99.90;;;;;;5212790;28;20909;-49
2023/03/01 05:39:50;;;;;;;20.93;11.23;;;-2.60;99.90;;;;;;5207604;28;20443;-51
2023/03/01 05:42:20;;;;;;;21.00;11.83;;;-2.70;99.90;;;;;;5205836;28;20228;-50
2023/03/01 05:44:51;;;;;;;19.20;11.27;;;-2.70;99.90;;;;;;5197436;28;20500;-48
2023/03/01 05:47:21;;;;;;;20.70;11.13;;;-2.70;99.90;;;;;;5186904;28;21120;-50
2023/03/01 05:49:52;;;;;;;19.57;11.27;;;-2.70;99.90;;;;;;5207222;28;20216;-48
2023/03/01 05:52:23;;;;;;;20.60;11.43;;;-2.70;99.90;;;;;;5213349;28;20199;-47
2023/03/01 05:54:53;;;;;;;27.47;13.57;;;-2.70;99.90;;;;;;5205474;28;20192;-48
2023/03/01 05:57:24;;;;;;;19.87;12.37;;;-2.70;99.90;;;;;;5206951;28;20220;-50
2023/03/01 05:59:55;;;;;;;23.50;12.90;;;-2.60;99.90;;;;;;5211416;28;20676;-48
2023/03/01 06:02:27;;;;;;;32.53;12.43;;;-2.60;99.90;;;;;;5200209;28;20214;-47
2023/03/01 06:04:57;;;;;;;23.70;13.33;;;-2.50;99.90;;;;;;5190792;28;20203;-48
2023/03/01 06:07:28;;;;;;;24.67;12.90;;;-2.40;99.90;;;;;;5204689;28;20461;-49
2023/03/01 06:09:59;;;;;;;22.20;12.63;;;-2.30;99.90;;;;;;5206834;28;20429;-48
2023/03/01 06:12:34;;;;;;;25.13;13.03;;;-2.20;99.90;;;;;;5194819;28;20673;-49
2023/03/01 06:15:06;;;;;;;24.30;13.37;;;-2.10;99.90;;;;;;5202463;28;20186;-48
2023/03/01 06:17:39;;;;;;;21.43;13.50;;;-1.90;99.90;;;;;;5203658;28;20569;-48
2023/03/01 06:20:28;;;;;;;24.87;13.33;;;-1.80;99.90;;;;;;5208391;28;20450;-48
2023/03/01 06:22:59;;;;;;;25.60;11.83;;;-1.70;99.90;;;;;;5207892;28;20486;-48
2023/03/01 06:25:30;;;;;;;25.33;12.03;;;-1.50;99.90;;;;;;5203331;28;20445;-49
2023/03/01 06:28:01;;;;;;;29.23;13.83;;;-1.30;99.90;;;;;;5209708;28;20422;-48
2023/03/01 06:30:31;;;;;;;20.20;12.20;;;-1.10;99.90;;;;;;5201278;28;20220;-53
2023/03/01 06:33:05;;;;;;;24.67;13.93;;;-1.00;99.90;;;;;;5206751;28;20211;-48
2023/03/01 06:35:36;;;;;;;29.03;13.97;;;-0.70;99.90;;;;;;5200360;28;20198;-48
2023/03/01 06:38:06;;;;;;;29.70;15.97;;;-0.60;99.90;;;;;;5201384;28;20479;-48
2023/03/01 06:40:37;;;;;;;33.63;15.10;;;-0.40;99.90;;;;;;5200924;28;20636;-49
2023/03/01 06:43:08;;;;;;;29.13;15.80;;;-0.10;99.90;;;;;;5204088;28;20222;-53
2023/03/01 06:45:38;;;;;;;28.67;15.47;;;0.20;99.90;;;;;;5206871;28;20187;-52
2023/03/01 06:48:09;;;;;;;22.57;13.20;;;0.70;99.90;;;;;;5182634;28;20285;-50
2023/03/01 06:50:39;;;;;;;26.10;14.33;;;1.30;99.90;;;;;;5190226;28;20176;-51
2023/03/01 06:53:10;;;;;;;26.20;13.47;;;2.30;99.90;;;;;;5198390;28;20218;-51
2023/03/01 06:55:41;;;;;;;37.57;15.20;;;3.70;99.90;;;;;;5201194;28;20742;-52
2023/03/01 06:58:12;;;;;;;33.87;14.73;;;5.10;99.90;;;;;;5204245;28;20666;-52
2023/03/01 07:00:44;;;;;;;30.17;14.43;;;6.30;98.10;;;;;;5194250;28;20439;-50
2023/03/01 07:03:14;;;;;;;25.07;14.50;;;7.30;88.80;;;;;;5198843;28;20230;-49
2023/03/01 07:05:45;;;;;;;28.93;14.90;;;8.40;74.50;;;;;;5196586;28;20430;-51
2023/03/01 07:08:16;;;;;;;27.93;14.73;;;9.30;60.90;;;;;;5197375;28;20183;-54
2023/03/01 07:10:46;;;;;;;24.33;13.33;;;10.10;56.70;;;;;;5198399;28;20183;-51
2023/03/01 07:13:17;;;;;;;27.73;14.97;;;10.90;53.70;;;;;;5201282;28;20350;-53
2023/03/01 07:15:47;;;;;;;26.00;13.90;;;11.80;50.50;;;;;;5205341;28;20285;-53
2023/03/01 07:18:18;;;;;;;27.80;15.67;;;12.90;47.10;;;;;;5202346;28;20194;-52
2023/03/01 07:20:49;;;;;;;23.80;14.13;;;13.70;43.30;;;;;;5193658;28;20262;-52
2023/03/01 07:23:20;;;;;;;29.03;13.57;;;14.30;42.20;;;;;;5196778;28;20298;-53
2023/03/01 07:25:54;;;;;;;27.33;14.37;;;15.10;40.20;;;;;;5198163;28;20546;-52
2023/03/01 07:28:25;;;;;;;30.20;15.60;;;15.70;38.10;;;;;;5195835;28;20186;-50
2023/03/01 07:31:01;;;;;;;33.40;14.30;;;16.10;36.50;;;;;;5191192;28;20446;-50
2023/03/01 07:33:32;;;;;;;27.87;14.87;;;16.50;35.40;;;;;;5193809;28;20202;-52
2023/03/01 07:36:04;;;;;;;21.03;13.10;;;16.80;35.10;;;;;;5193851;28;20430;-49
2023/03/01 07:38:34;;;;;;;21.23;13.50;;;16.90;34.50;;;;;;5202820;28;20915;-49
2023/03/01 07:41:06;;;;;;;27.00;14.40;;;17.20;33.50;;;;;;5194492;28;20705;-50
2023/03/01 07:43:37;;;;;;;32.40;15.30;;;17.40;33.10;;;;;;5260914;22;20577;-54
2023/03/01 07:46:08;;;;;;;29.50;14.17;;;17.70;32.80;;;;;;5223738;28;20447;-54
2023/03/01 07:48:39;;;;;;;23.70;12.53;;;17.50;32.40;;;;;;5221710;28;20421;-52
2023/03/01 07:51:11;;;;;;;21.63;11.30;;;17.10;32.50;;;;;;5217700;28;20842;-54
2023/03/01 07:53:41;;;;;;;19.47;10.83;;;15.70;33.20;;;;;;5239064;28;20478;-54
2023/03/01 07:56:14;;;;;;;17.40;10.77;;;13.60;35.20;;;;;;5238133;28;20519;-53
2023/03/01 07:58:45;;;;;;;20.07;10.20;;;11.20;37.80;;;;;;5239629;28;20183;-53
2023/03/01 08:01:20;;;;;;;18.83;10.23;;;9.20;42.50;;;;;;5216722;28;20540;-52
2023/03/01 08:03:51;;;;;;;26.83;10.00;;;7.60;45.50;;;;;;5221936;28;20999;-55
2023/03/01 08:06:22;;;;;;;19.33;10.23;;;6.50;48.50;;;;;;5239731;28;20485;-54
2023/03/01 08:08:56;;;;;;;16.33;11.07;;;5.70;50.70;;;;;;5220930;28;20475;-55
2023/03/01 08:11:30;;;;;;;15.83;10.10;;;5.10;52.80;;;;;;5219122;28;20196;-55
2023/03/01 08:14:00;;;;;;;14.37;8.77;;;4.80;54.80;;;;;;5219888;28;20439;-54
2023/03/01 08:16:35;;;;;;;16.00;9.40;;;4.30;56.00;;;;;;5214167;28;20449;-54
2023/03/01 08:19:10;;;;;;;20.73;8.97;;;4.20;59.40;;;;;;5229170;28;20526;-53
2023/03/01 08:21:40;;;;;;;14.50;8.70;;;4.00;64.10;;;;;;5240130;28;21248;-53
2023/03/01 08:24:15;;;;;;;20.57;8.33;;;3.90;68.00;;;;;;5231327;28;20459;-53
2023/03/01 08:26:46;;;;;;;16.57;8.80;;;3.70;69.20;;;;;;5224001;28;20210;-53
2023/03/01 08:29:19;;;;;;;11.23;6.83;;;3.60;70.50;;;;;;5224015;28;21214;-52
2023/03/01 08:31:51;;;;;;;14.60;7.30;;;3.50;71.60;;;;;;5236696;28;20497;-54
2023/03/01 08:34:22;;;;;;;12.17;5.70;;;3.40;73.60;;;;;;5246715;28;20542;-52
2023/03/01 08:36:53;;;;;;;8.43;6.07;;;3.60;75.00;;;;;;5227863;28;20936;-54
2023/03/01 08:39:24;;;;;;;9.47;5.00;;;3.40;75.00;;;;;;5238034;28;20447;-52
2023/03/01 08:41:58;;;;;;;8.60;5.43;;;3.40;75.00;;;;;;5238480;28;20448;-54
2023/03/01 08:44:37;;;;;;;5.00;4.03;;;3.50;77.30;;;;;;5229649;28;20460;-53
2023/03/01 08:47:10;;;;;;;5.40;4.77;;;3.50;77.60;;;;;;5246969;28;20505;-53
2023/03/01 08:49:41;;;;;;;6.43;5.80;;;3.40;79.30;;;;;;5228191;28;20492;-54
2023/03/01 08:52:28;;;;;;;5.30;4.63;;;3.40;79.30;;;;;;5215876;28;20444;-54
2023/03/01 08:55:01;;;;;;;8.03;5.40;;;3.50;81.10;;;;;;5249046;28;20941;-54
2023/03/01 08:57:35;;;;;;;8.60;4.70;;;3.50;82.20;;;;;;5231523;28;20438;-53
2023/03/01 09:00:08;;;;;;;6.10;4.73;;;3.50;81.60;;;;;;5231101;28;20434;-53
2023/03/01 09:02:39;;;;;;;5.57;4.30;;;3.50;80.80;;;;;;5249156;28;20456;-53
2023/03/01 09:05:10;;;;;;;6.17;3.97;;;3.60;80.70;;;;;;5247195;28;20462;-54
2023/03/01 09:07:47;;;;;;;4.53;3.93;;;3.70;79.00;;;;;;5233585;28;20171;-54
2023/03/01 09:10:18;;;;;;;5.40;4.07;;;3.60;79.60;;;;;;5247485;28;20545;-53
2023/03/01 09:12:52;;;;;;;8.80;4.90;;;3.70;78.40;;;;;;5230866;28;20531;-54
2023/03/01 09:15:23;;;;;;;8.50;5.03;;;3.80;79.20;;;;;;5229013;28;20505;-53
2023/03/01 09:17:57;;;;;;;5.67;5.17;;;3.80;76.70;;;;;;5249108;28;20427;-53
2023/03/01 09:20:41;;;;;;;8.37;5.47;;;3.90;75.20;;;;;;5229509;28;20524;-54
2023/03/01 09:23:50;;;;;;;7.00;4.40;;;4.00;75.50;;;;;;5246005;28;20453;-53
2023/03/01 09:26:23;;;;;;;11.20;5.30;;;4.00;74.80;;;;;;5232549;28;20449;-55
2023/03/01 09:28:55;;;;;;;16.83;9.23;;;4.10;74.60;;;;;;5221828;28;20524;-54
2023/03/01 09:31:26;;;;;;;36.13;16.60;;;4.20;72.50;;;;;;5223554;28;20446;-54
2023/03/01 09:33:57;;;;;;;22.87;10.70;;;4.30;73.10;;;;;;5235722;28;20933;-54
2023/03/01 09:36:28;;;;;;;10.30;6.60;;;4.50;72.90;;;;;;5220503;28;20189;-54
2023/03/01 09:39:00;;;;;;;7.87;5.60;;;4.50;72.30;;;;;;5228660;28;20186;-53
2023/03/01 09:42:01;;;;;;;8.43;4.87;;;4.60;72.50;;;;;;5225026;28;20962;-52
2023/03/01 09:45:04;;;;;;;6.20;3.03;;;4.70;72.20;;;;;;5221444;28;20464;-52
2023/03/01 09:47:36;;;;;;;6.83;4.23;;;4.70;66.30;;;;;;5226430;28;20428;-54
2023/03/01 09:50:20;;;;;;;4.33;3.30;;;4.90;65.40;;;;;;5242766;28;20765;-53
2023/03/01 09:53:21;;;;;;;4.40;3.10;;;4.90;63.80;;;;;;5225918;28;20764;-52
2023/03/01 09:56:13;;;;;;;4.03;3.70;;;5.00;63.70;;;;;;5210001;28;21672;-51
2023/03/01 09:58:52;;;;;;;4.93;4.00;;;5.00;64.00;;;;;;5240851;28;20424;-54
2023/03/01 10:01:58;;;;;;;4.23;3.50;;;5.20;65.10;;;;;;5219240;28;20996;-54
2023/03/01 10:04:39;;;;;;;6.33;3.33;;;5.40;60.90;;;;;;5246454;28;20454;-53
2023/03/01 10:07:10;;;;;;;5.90;3.23;;;5.20;59.70;;;;;;5225439;28;20542;-54
2023/03/01 10:09:45;;;;;;;2.77;2.60;;;4.90;59.20;;;;;;5226995;28;20570;-54
2023/03/01 10:12:23;;;;;;;6.23;3.20;;;4.90;59.90;;;;;;5236695;28;20198;-53
2023/03/01 10:15:04;;;;;;;6.40;2.70;;;5.00;60.30;;;;;;5237416;28;20435;-52
2023/03/01 10:17:45;;;;;;;2.50;2.30;;;5.00;59.20;;;;;;5220548;28;20794;-52
2023/03/01 10:20:23;;;;;;;2.20;2.00;;;5.20;59.40;;;;;;5218541;28;20449;-52
2023/03/01 10:22:55;;;;;;;6.83;3.00;;;5.20;59.50;;;;;;5237912;28;20478;-54
2023/03/01 10:26:04;;;;;;;10.00;2.40;;;5.30;58.60;;;;;;5246698;28;20464;-54
2023/03/01 10:29:07;;;;;;;4.00;2.17;;;5.40;58.90;;;;;;5225258;28;20441;-54
2023/03/01 10:31:49;;;;;;;5.20;2.47;;;5.10;55.40;;;;;;5239268;28;20522;-53
2023/03/01 10:34:37;;;;;;;5.00;2.30;;;5.10;56.30;;;;;;5241490;28;20435;-53
2023/03/01 10:37:21;;;;;;;4.13;2.30;;;5.10;54.70;;;;;;5224900;28;20442;-54
2023/03/01 10:40:11;;;;;;;3.10;2.50;;;5.10;53.80;;;;;;5238304;28;20442;-52
2023/03/01 10:42:49;;;;;;;3.87;2.80;;;5.20;54.20;;;;;;5219320;28;20502;-54
2023/03/01 10:45:29;;;;;;;4.37;2.33;;;5.40;54.80;;;;;;5232305;28;21143;-51
2023/03/01 10:48:13;;;;;;;5.10;2.70;;;5.50;54.70;;;;;;5236952;28;20428;-53
2023/03/01 10:50:50;;;;;;;3.70;2.13;;;5.60;54.10;;;;;;5239689;28;20469;-56
2023/03/01 10:53:37;;;;;;;2.70;2.27;;;5.80;51.90;;;;;;5221695;28;20468;-55
2023/03/01 10:56:13;;;;;;;4.60;2.43;;;5.80;51.90;;;;;;5222316;28;20443;-54
2023/03/01 10:59:00;;;;;;;2.57;2.37;;;5.90;52.50;;;;;;5240426;28;20424;-53
2023/03/01 11:01:35;;;;;;;12.93;3.13;;;6.10;52.80;;;;;;5238407;28;20620;-55
2023/03/01 11:04:11;;;;;;;6.03;3.00;;;6.00;52.40;;;;;;5239649;28;20468;-54
2023/03/01 11:06:43;;;;;;;5.50;3.03;;;6.10;52.20;;;;;;5239176;28;20489;-55
2023/03/01 11:09:22;;;;;;;7.33;3.47;;;6.20;52.30;;;;;;5227536;28;20496;-54
2023/03/01 11:11:56;;;;;;;3.73;3.40;;;6.40;52.60;;;;;;5241720;28;20456;-54
2023/03/01 11:14:38;;;;;;;3.93;3.10;;;6.50;52.30;;;;;;5225035;28;20449;-54
2023/03/01 11:17:18;;;;;;;2.80;2.60;;;6.70;52.30;;;;;;5217108;28;20480;-54
2023/03/01 11:20:14;;;;;;;11.23;2.90;;;6.90;51.00;;;;;;5241008;28;20472;-54
2023/03/01 11:23:02;;;;;;;4.13;2.60;;;7.00;50.70;;;;;;5239461;28;20504;-55
2023/03/01 11:25:37;;;;;;;3.00;2.63;;;6.90;49.10;;;;;;5225347;28;20443;-55
2023/03/01 11:28:14;;;;;;;2.30;2.20;;;6.90;47.80;;;;;;5207015;28;20437;-53
2023/03/01 11:31:04;;;;;;;10.00;3.00;;;6.90;48.40;;;;;;5215166;28;20470;-54
2023/03/01 11:33:43;;;;;;;8.63;3.73;;;6.80;48.50;;;;;;5221063;28;20522;-55
2023/03/01 11:36:13;;;;;;;6.13;2.90;;;7.00;48.70;;;;;;5243911;28;20437;-55
2023/03/01 11:38:44;;;;;;;2.57;2.37;;;7.20;47.80;;;;;;5226865;28;20432;-55
2023/03/01 11:41:22;;;;;;;2.40;2.30;;;7.00;43.70;;;;;;5226100;28;20178;-56
2023/03/01 11:44:02;;;;;;;3.63;3.20;;;6.90;44.70;;;;;;5221693;28;20506;-55
2023/03/01 11:47:05;;;;;;;2.53;2.33;;;6.70;45.30;;;;;;5217600;28;20971;-54
2023/03/01 11:50:18;;;;;;;4.33;2.30;;;6.50;45.20;;;;;;5234294;28;20432;-54
2023/03/01 11:52:52;;;;;;;2.60;2.30;;;6.50;45.10;;;;;;5221846;28;20460;-54
2023/03/01 11:55:42;;;;;;;4.93;2.40;;;6.40;45.00;;;;;;5231947;28;20970;-54
2023/03/01 11:58:41;;;;;;;2.50;2.30;;;6.70;45.40;;;;;;5231003;28;21000;-55
2023/03/01 12:01:32;;;;;;;2.50;2.40;;;6.60;43.30;;;;;;5221161;28;20490;-53
2023/03/01 12:04:32;;;;;;;2.93;2.73;;;6.60;43.30;;;;;;5220222;28;20463;-55
2023/03/01 12:07:40;;;;;;;2.27;2.13;;;6.70;43.20;;;;;;5207724;28;21029;-55
2023/03/01 12:10:14;;;;;;;2.80;2.60;;;6.70;42.40;;;;;;5228300;28;20444;-56
2023/03/01 12:13:16;;;;;;;2.43;2.30;;;6.70;42.90;;;;;;5227978;28;20453;-56
2023/03/01 12:16:36;;;;;;;4.13;2.20;;;6.80;42.80;;;;;;5228779;28;21010;-53
2023/03/01 12:19:26;;;;;;;5.27;2.30;;;7.00;41.50;;;;;;5184153;28;20442;-51
2023/03/01 12:22:40;;;;;;;2.87;2.67;;;7.10;41.10;;;;;;5229181;28;20460;-53
2023/03/01 12:25:40;;;;;;;3.60;1.90;;;7.20;41.30;;;;;;5238421;28;20494;-52
2023/03/01 12:28:51;;;;;;;2.07;1.87;;;7.40;41.00;;;;;;5225390;28;20432;-52
2023/03/01 12:31:47;;;;;;;3.77;1.97;;;7.60;40.80;;;;;;5229028;28;20540;-52
2023/03/01 12:34:27;;;;;;;2.77;2.53;;;7.50;39.90;;;;;;5245561;28;20512;-53
2023/03/01 12:37:29;;;;;;;2.43;2.33;;;7.50;40.10;;;;;;5243493;28;21047;-53
2023/03/01 12:40:13;;;;;;;8.53;2.13;;;7.40;39.30;;;;;;5243289;28;20435;-52
2023/03/01 12:42:51;;;;;;;6.80;2.40;;;7.30;39.80;;;;;;5214544;28;20469;-53
2023/03/01 12:45:53;;;;;;;2.23;2.13;;;7.30;40.20;;;;;;5242802;28;20818;-53
2023/03/01 12:49:08;;;;;;;5.27;2.50;;;7.50;40.10;;;;;;5228569;28;20538;-53
2023/03/01 12:51:43;;;;;;;3.10;2.40;;;7.50;39.40;;;;;;5228741;28;20436;-52
2023/03/01 12:54:31;;;;;;;2.60;1.77;;;7.40;37.90;;;;;;5224610;28;20450;-53
2023/03/01 12:57:17;;;;;;;2.20;2.00;;;7.40;37.70;;;;;;5239799;28;20630;-52
2023/03/01 13:00:09;;;;;;;4.13;2.17;;;7.30;37.10;;;;;;5230105;28;20532;-53
2023/03/01 13:02:53;;;;;;;3.40;1.97;;;7.20;36.10;;;;;;5246391;28;20502;-52
2023/03/01 13:05:50;;;;;;;2.90;2.13;;;7.10;36.80;;;;;;5243025;28;20495;-52
2023/03/01 13:08:33;;;;;;;4.00;1.27;;;7.30;37.30;;;;;;5220150;28;20440;-51
2023/03/01 13:11:14;;;;;;;3.23;2.40;;;7.30;37.00;;;;;;5246958;28;20436;-53
2023/03/01 13:13:48;;;;;;;1.73;1.63;;;7.40;36.00;;;;;;5241734;28;20464;-53
2023/03/01 13:16:42;;;;;;;3.87;2.67;;;7.50;35.80;;;;;;5225247;28;20522;-53
2023/03/01 13:19:22;;;;;;;10.67;2.20;;;7.50;36.50;;;;;;5225625;28;20432;-52
2023/03/01 13:21:54;;;;;;;4.00;2.80;;;7.50;37.10;;;;;;5247789;28;20456;-52
2023/03/01 13:24:31;;;;;;;2.63;2.37;;;7.50;36.80;;;;;;5224046;28;21011;-51